createdAt,value
2022-09-04T00:00:51.685Z,21.10
2022-09-04T00:03:26.401Z,20.90
2022-09-04T00:05:54.634Z,20.80
2022-09-04T00:08:28.882Z,20.80
2022-09-04T00:11:00.010Z,20.90
2022-09-04T00:13:28.923Z,20.50
2022-09-04T00:15:58.538Z,20.50
2022-09-04T00:18:28.998Z,21.00
2022-09-04T00:20:58.110Z,21.10
2022-09-04T00:23:27.207Z,21.10
2022-09-04T00:25:57.634Z,21.10
2022-09-04T00:28:30.682Z,20.80
2022-09-04T00:31:00.317Z,20.90
2022-09-04T00:33:30.014Z,21.30
2022-09-04T00:35:58.752Z,21.70
2022-09-04T00:38:32.503Z,21.60
2022-09-04T00:41:14.455Z,21.70
2022-09-04T00:43:50.765Z,21.50
2022-09-04T00:46:22.245Z,21.70
2022-09-04T00:48:58.319Z,21.70
2022-09-04T00:51:29.904Z,21.50
2022-09-04T00:54:20.024Z,21.70
2022-09-04T00:56:56.846Z,21.80
2022-09-04T00:59:29.538Z,21.80
2022-09-04T01:01:57.661Z,21.90
2022-09-04T01:04:29.249Z,21.70
2022-09-04T01:07:01.130Z,21.80
2022-09-04T01:09:46.846Z,21.60
2022-09-04T01:12:18.291Z,21.60
2022-09-04T01:14:53.169Z,21.30
2022-09-04T01:17:24.304Z,21.60
2022-09-04T01:19:54.261Z,21.60
2022-09-04T01:22:33.914Z,21.30
2022-09-04T01:25:05.766Z,21.20
2022-09-04T01:27:35.952Z,21.40
2022-09-04T01:30:05.884Z,21.50
2022-09-04T01:32:37.208Z,21.40
2022-09-04T01:35:07.062Z,20.90
2022-09-04T01:37:39.808Z,20.90
2022-09-04T01:40:13.618Z,21.20
2022-09-04T01:42:44.272Z,21.20
2022-09-04T01:45:12.174Z,20.90
2022-09-04T01:47:43.390Z,21.10
2022-09-04T01:50:12.172Z,20.70
2022-09-04T01:52:42.665Z,20.80
2022-09-04T01:55:13.558Z,20.80
2022-09-04T01:57:52.127Z,20.90
2022-09-04T02:00:22.796Z,21.00
2022-09-04T02:02:56.588Z,20.90
2022-09-04T02:05:27.879Z,21.10
2022-09-04T02:07:58.754Z,21.00
2022-09-04T02:10:29.715Z,21.10
2022-09-04T02:13:02.706Z,21.10
2022-09-04T02:15:33.525Z,21.10
2022-09-04T02:18:02.928Z,20.90
2022-09-04T02:20:31.277Z,20.90
2022-09-04T02:23:03.316Z,21.00
2022-09-04T02:25:31.991Z,20.80
2022-09-04T02:28:04.907Z,20.80
2022-09-04T02:30:33.290Z,20.90
2022-09-04T02:33:02.850Z,20.90
2022-09-04T02:35:32.054Z,21.00
2022-09-04T02:38:02.470Z,20.80
2022-09-04T02:40:32.474Z,20.80
2022-09-04T02:43:06.179Z,20.60
2022-09-04T02:45:35.304Z,20.60
2022-09-04T02:48:04.835Z,20.80
2022-09-04T02:50:39.290Z,20.60
2022-09-04T02:53:11.061Z,20.50
2022-09-04T02:55:45.832Z,20.40
2022-09-04T02:58:16.559Z,20.80
2022-09-04T03:00:45.760Z,20.70
2022-09-04T03:03:14.524Z,20.80
2022-09-04T03:05:43.046Z,20.60
2022-09-04T03:08:14.466Z,20.60
2022-09-04T03:10:43.730Z,20.60
2022-09-04T03:13:11.934Z,20.40
2022-09-04T03:15:42.748Z,20.40
2022-09-04T03:18:16.815Z,20.30
2022-09-04T03:20:45.981Z,20.40
2022-09-04T03:23:14.668Z,20.30
2022-09-04T03:26:02.761Z,20.40
2022-09-04T03:28:34.262Z,20.50
2022-09-04T03:31:06.291Z,20.30
2022-09-04T03:33:35.713Z,20.40
2022-09-04T03:36:08.590Z,20.40
2022-09-04T03:38:39.027Z,20.00
2022-09-04T03:41:09.271Z,20.20
2022-09-04T03:43:44.871Z,20.10
2022-09-04T03:46:18.091Z,19.80
2022-09-04T03:48:48.971Z,19.70
2022-09-04T03:51:18.324Z,19.90
2022-09-04T03:53:46.424Z,20.20
2022-09-04T03:56:32.278Z,20.00
2022-09-04T03:59:04.007Z,20.00
2022-09-04T04:01:38.347Z,20.00
2022-09-04T04:04:13.716Z,20.10
2022-09-04T04:06:42.611Z,20.30
2022-09-04T04:09:14.782Z,20.30
2022-09-04T04:11:47.648Z,19.90
2022-09-04T04:14:38.470Z,20.00
2022-09-04T04:17:17.594Z,19.80
2022-09-04T04:19:51.217Z,20.00
2022-09-04T04:22:24.618Z,20.20
2022-09-04T04:24:57.569Z,20.20
2022-09-04T04:27:29.561Z,20.00
2022-09-04T04:30:02.002Z,19.90
2022-09-04T04:32:34.095Z,20.10
2022-09-04T04:35:11.641Z,20.10
2022-09-04T04:37:44.545Z,20.00
2022-09-04T04:40:15.034Z,20.00
2022-09-04T04:42:43.991Z,19.80
2022-09-04T04:45:40.282Z,19.80
2022-09-04T04:48:26.088Z,19.70
2022-09-04T04:50:59.491Z,20.10
2022-09-04T04:53:30.270Z,19.80
2022-09-04T04:55:59.199Z,19.70
2022-09-04T04:58:48.168Z,19.40
2022-09-04T05:01:18.869Z,19.70
2022-09-04T05:03:54.001Z,19.60
2022-09-04T05:06:26.077Z,19.60
2022-09-04T05:08:55.646Z,19.60
2022-09-04T05:11:25.227Z,19.70
2022-09-04T05:13:56.826Z,19.60
2022-09-04T05:16:27.116Z,19.70
2022-09-04T05:18:57.071Z,19.40
2022-09-04T05:21:26.457Z,19.50
2022-09-04T05:23:56.111Z,19.80
2022-09-04T05:26:26.318Z,19.80
2022-09-04T05:28:56.514Z,19.90
2022-09-04T05:31:27.927Z,20.10
2022-09-04T05:33:58.390Z,20.10
2022-09-04T05:36:30.275Z,19.90
2022-09-04T05:39:00.330Z,19.80
2022-09-04T05:41:37.669Z,20.00
2022-09-04T05:44:12.378Z,20.30
2022-09-04T05:46:43.651Z,20.60
2022-09-04T05:49:14.419Z,20.50
2022-09-04T05:51:50.748Z,20.50
2022-09-04T05:54:28.329Z,20.50
2022-09-04T05:57:01.260Z,21.20
2022-09-04T05:59:33.320Z,20.90
2022-09-04T06:02:16.672Z,20.90
2022-09-04T06:04:55.182Z,20.80
2022-09-04T06:07:27.184Z,20.80
2022-09-04T06:10:00.206Z,20.80
2022-09-04T06:12:43.090Z,21.00
2022-09-04T06:15:14.087Z,21.10
2022-09-04T06:17:54.377Z,21.20
2022-09-04T06:20:29.429Z,21.10
2022-09-04T06:23:07.484Z,21.20
2022-09-04T06:25:41.062Z,21.50
2022-09-04T06:28:21.622Z,21.70
2022-09-04T06:30:50.230Z,21.50
2022-09-04T06:33:21.455Z,21.50
2022-09-04T06:35:52.899Z,21.70
2022-09-04T06:38:27.373Z,21.90
2022-09-04T06:40:59.257Z,22.20
2022-09-04T06:43:29.707Z,22.10
2022-09-04T06:46:02.293Z,22.20
2022-09-04T06:48:34.761Z,22.10
2022-09-04T06:51:08.925Z,22.60
2022-09-04T06:53:42.601Z,22.60
2022-09-04T06:56:13.644Z,22.70
2022-09-04T06:58:44.385Z,23.10
2022-09-04T07:01:13.802Z,23.20
2022-09-04T07:03:45.462Z,23.40
2022-09-04T07:06:14.669Z,23.50
2022-09-04T07:08:52.793Z,23.80
2022-09-04T07:11:21.859Z,24.10
2022-09-04T07:13:52.401Z,24.10
2022-09-04T07:16:32.033Z,24.20
2022-09-04T07:19:09.102Z,24.30
2022-09-04T07:21:40.227Z,24.50
2022-09-04T07:24:10.154Z,24.30
2022-09-04T07:26:38.836Z,24.50
2022-09-04T07:29:25.249Z,24.90
2022-09-04T07:31:56.178Z,25.10
2022-09-04T07:34:25.698Z,25.20
2022-09-04T07:36:55.412Z,24.80
2022-09-04T07:39:26.603Z,24.80
2022-09-04T07:41:56.702Z,24.60
2022-09-04T07:44:27.255Z,24.70
2022-09-04T07:46:58.019Z,24.30
2022-09-04T07:49:31.545Z,24.20
2022-09-04T07:52:01.020Z,24.30
2022-09-04T07:54:39.724Z,24.40
2022-09-04T07:57:13.610Z,25.00
2022-09-04T07:59:45.734Z,25.30
2022-09-04T08:02:34.504Z,25.10
2022-09-04T08:05:06.610Z,25.10
2022-09-04T08:07:48.719Z,25.40
2022-09-04T08:10:22.723Z,25.90
2022-09-04T08:12:57.610Z,26.00
2022-09-04T08:15:28.285Z,26.10
2022-09-04T08:18:00.555Z,26.50
2022-09-04T08:20:33.756Z,25.80
2022-09-04T08:23:05.705Z,26.50
2022-09-04T08:25:41.987Z,26.80
2022-09-04T08:28:17.541Z,27.20
2022-09-04T08:30:48.548Z,27.10
2022-09-04T08:33:21.029Z,27.30
2022-09-04T08:35:51.144Z,27.40
2022-09-04T08:38:24.120Z,27.50
2022-09-04T08:41:02.645Z,27.40
2022-09-04T08:43:32.468Z,27.40
2022-09-04T08:46:08.168Z,26.90
2022-09-04T08:49:00.129Z,27.40
2022-09-04T08:51:35.711Z,27.60
2022-09-04T08:54:22.628Z,28.10
2022-09-04T08:56:54.513Z,27.80
2022-09-04T08:59:30.898Z,28.10
2022-09-04T09:02:15.404Z,28.30
2022-09-04T09:05:07.360Z,28.50
2022-09-04T09:07:58.502Z,28.30
2022-09-04T09:10:39.305Z,28.80
2022-09-04T09:13:28.326Z,28.20
2022-09-04T09:16:04.639Z,27.30
2022-09-04T09:18:37.103Z,28.60
2022-09-04T09:21:09.253Z,28.60
2022-09-04T09:23:41.668Z,29.00
2022-09-04T09:26:14.779Z,29.00
2022-09-04T09:29:00.253Z,29.20
2022-09-04T09:31:38.942Z,29.70
2022-09-04T09:34:14.345Z,29.50
2022-09-04T09:36:53.134Z,29.50
2022-09-04T09:39:30.159Z,29.60
2022-09-04T09:42:16.010Z,28.90
2022-09-04T09:44:53.800Z,29.30
2022-09-04T09:47:42.428Z,29.20
2022-09-04T09:50:15.056Z,29.70
2022-09-04T09:53:01.018Z,30.10
2022-09-04T09:56:01.933Z,29.90
2022-09-04T09:58:45.107Z,30.30
2022-09-04T10:01:20.740Z,30.20
2022-09-04T10:03:59.577Z,30.30
2022-09-04T10:06:50.990Z,30.30
2022-09-04T10:09:38.891Z,30.90
2022-09-04T10:12:25.468Z,31.00
2022-09-04T10:14:58.621Z,30.50
2022-09-04T10:17:33.339Z,29.70
2022-09-04T10:20:20.362Z,30.30
2022-09-04T10:23:11.956Z,30.70
2022-09-04T10:25:46.196Z,31.30
2022-09-04T10:28:26.122Z,30.50
2022-09-04T10:31:03.309Z,30.10
2022-09-04T10:33:33.024Z,30.90
2022-09-04T10:36:05.663Z,31.30
2022-09-04T10:38:35.590Z,31.80
2022-09-04T10:41:17.366Z,30.80
2022-09-04T10:43:51.497Z,30.00
2022-09-04T10:46:22.905Z,30.90
2022-09-04T10:49:04.325Z,31.10
2022-09-04T10:51:51.477Z,31.20
2022-09-04T10:54:45.245Z,31.20
2022-09-04T10:57:18.872Z,32.30
2022-09-04T10:59:49.915Z,32.10
2022-09-04T11:02:36.697Z,32.30
2022-09-04T11:05:36.567Z,31.70
2022-09-04T11:08:13.677Z,31.70
2022-09-04T11:10:43.756Z,31.30
2022-09-04T11:13:26.725Z,32.90
2022-09-04T11:16:09.587Z,32.50
2022-09-04T11:18:55.098Z,31.80
2022-09-04T11:21:38.015Z,32.00
2022-09-04T11:24:23.554Z,30.70
2022-09-04T11:27:08.298Z,31.90
2022-09-04T11:29:41.365Z,31.40
2022-09-04T11:32:14.136Z,32.00
2022-09-04T11:34:48.320Z,32.40
2022-09-04T11:37:23.694Z,32.20
2022-09-04T11:39:56.502Z,32.50
2022-09-04T11:42:34.135Z,32.40
2022-09-04T11:45:23.223Z,30.80
2022-09-04T11:48:01.955Z,32.00
2022-09-04T11:50:47.608Z,32.00
2022-09-04T11:53:30.393Z,32.30
2022-09-04T11:56:12.834Z,33.00
2022-09-04T11:58:50.411Z,29.80
2022-09-04T12:01:22.641Z,31.10
2022-09-04T12:03:59.299Z,30.70
2022-09-04T12:06:37.453Z,31.50
2022-09-04T12:09:23.989Z,31.60
2022-09-04T12:12:01.535Z,30.90
2022-09-04T12:14:42.789Z,31.60
2022-09-04T12:17:15.625Z,32.30
2022-09-04T12:19:50.443Z,32.50
2022-09-04T12:22:39.046Z,31.90
2022-09-04T12:25:11.110Z,32.20
2022-09-04T12:27:49.095Z,32.90
2022-09-04T12:30:19.727Z,33.30
2022-09-04T12:33:08.272Z,34.10
2022-09-04T12:35:43.948Z,33.00
2022-09-04T12:38:15.988Z,33.50
2022-09-04T12:40:46.128Z,33.50
2022-09-04T12:43:17.426Z,34.00
2022-09-04T12:45:46.968Z,33.30
2022-09-04T12:48:17.968Z,32.90
2022-09-04T12:50:49.233Z,33.40
2022-09-04T12:53:49.269Z,33.20
2022-09-04T12:56:22.848Z,33.20
2022-09-04T12:58:55.288Z,31.40
2022-09-04T13:01:29.845Z,31.70
2022-09-04T13:03:59.954Z,33.10
2022-09-04T13:06:31.003Z,33.30
2022-09-04T13:09:02.643Z,33.80
2022-09-04T13:11:38.060Z,33.30
2022-09-04T13:14:12.114Z,33.80
2022-09-04T13:16:40.613Z,33.50
2022-09-04T13:19:12.044Z,32.60
2022-09-04T13:21:48.578Z,32.40
2022-09-04T13:24:20.072Z,32.30
2022-09-04T13:26:55.818Z,33.50
2022-09-04T13:29:26.135Z,32.30
2022-09-04T13:31:59.559Z,32.00
2022-09-04T13:34:29.172Z,32.20
2022-09-04T13:37:04.516Z,32.60
2022-09-04T13:39:45.256Z,32.90
2022-09-04T13:42:17.110Z,33.50
2022-09-04T13:44:51.008Z,33.40
2022-09-04T13:47:21.114Z,33.30
2022-09-04T13:49:56.421Z,32.90
2022-09-04T13:52:27.910Z,33.10
2022-09-04T13:54:56.738Z,33.10
2022-09-04T13:57:27.849Z,33.10
2022-09-04T13:59:57.387Z,32.80
2022-09-04T14:02:26.092Z,32.00
2022-09-04T14:04:55.221Z,32.30
2022-09-04T14:07:24.646Z,32.80
2022-09-04T14:09:54.491Z,32.70
2022-09-04T14:12:31.614Z,33.00
2022-09-04T14:15:17.554Z,33.40
2022-09-04T14:17:46.482Z,33.30
2022-09-04T14:20:20.578Z,32.10
2022-09-04T14:22:52.959Z,31.70
2022-09-04T14:25:22.717Z,31.50
2022-09-04T14:27:54.017Z,32.40
2022-09-04T14:30:22.331Z,32.30
2022-09-04T14:32:57.996Z,32.90
2022-09-04T14:35:29.065Z,31.70
2022-09-04T14:38:13.636Z,32.00
2022-09-04T14:40:46.006Z,32.70
2022-09-04T14:43:17.075Z,32.20
2022-09-04T14:46:07.010Z,31.40
2022-09-04T14:48:40.518Z,32.00
2022-09-04T14:51:13.544Z,31.80
2022-09-04T14:53:42.086Z,32.00
2022-09-04T14:56:18.790Z,31.90
2022-09-04T14:58:50.615Z,32.00
2022-09-04T15:01:20.239Z,31.00
2022-09-04T15:03:49.103Z,31.90
2022-09-04T15:06:21.343Z,32.30
2022-09-04T15:09:02.014Z,31.90
2022-09-04T15:11:32.021Z,31.80
2022-09-04T15:14:04.911Z,31.60
2022-09-04T15:16:44.336Z,32.20
2022-09-04T15:19:20.843Z,32.90
2022-09-04T15:21:51.110Z,32.50
2022-09-04T15:24:25.793Z,31.30
2022-09-04T15:26:56.772Z,32.20
2022-09-04T15:29:27.242Z,32.40
2022-09-04T15:32:00.597Z,31.60
2022-09-04T15:34:28.620Z,30.80
2022-09-04T15:36:56.975Z,31.20
2022-09-04T15:39:27.619Z,31.40
2022-09-04T15:41:57.266Z,31.10
2022-09-04T15:44:30.330Z,31.50
2022-09-04T15:47:00.413Z,31.30
2022-09-04T15:49:30.530Z,31.70
2022-09-04T15:52:03.360Z,32.30
2022-09-04T15:54:33.033Z,32.00
2022-09-04T15:57:06.239Z,32.40
2022-09-04T15:59:37.609Z,31.90
2022-09-04T16:02:11.707Z,31.40
2022-09-04T16:04:42.394Z,29.80
2022-09-04T16:07:20.649Z,31.50
2022-09-04T16:09:49.840Z,32.20
2022-09-04T16:12:20.161Z,32.00
2022-09-04T16:14:49.447Z,31.80
2022-09-04T16:17:20.296Z,31.60
2022-09-04T16:19:50.060Z,31.40
2022-09-04T16:22:24.511Z,31.80
2022-09-04T16:24:54.892Z,31.80
2022-09-04T16:27:24.447Z,32.10
2022-09-04T16:29:57.400Z,31.90
2022-09-04T16:32:26.057Z,31.90
2022-09-04T16:34:55.602Z,31.80
2022-09-04T16:37:24.157Z,31.50
2022-09-04T16:39:57.416Z,31.80
2022-09-04T16:42:28.200Z,31.80
2022-09-04T16:44:57.990Z,31.50
2022-09-04T16:47:27.679Z,31.50
2022-09-04T16:49:57.535Z,31.40
2022-09-04T16:52:40.315Z,31.40
2022-09-04T16:55:10.131Z,31.70
2022-09-04T16:57:42.504Z,31.50
2022-09-04T17:00:10.931Z,31.30
2022-09-04T17:02:42.878Z,31.40
2022-09-04T17:05:17.512Z,31.50
2022-09-04T17:07:46.060Z,31.40
2022-09-04T17:10:25.919Z,31.10
2022-09-04T17:12:55.372Z,31.10
2022-09-04T17:15:25.016Z,31.20
2022-09-04T17:17:53.959Z,30.80
2022-09-04T17:20:22.903Z,30.80
2022-09-04T17:29:05.114Z,30.80
2022-09-04T17:29:15.424Z,30.80
2022-09-04T17:29:19.382Z,29.90
2022-09-04T17:31:45.631Z,29.40
2022-09-04T17:40:26.392Z,29.70
2022-09-04T17:40:49.730Z,29.30
2022-09-04T17:40:57.399Z,29.20
2022-09-04T17:42:57.095Z,29.40
2022-09-04T17:45:40.173Z,29.30
2022-09-04T17:48:19.904Z,29.20
2022-09-04T17:50:48.846Z,29.00
2022-09-04T17:53:33.393Z,28.80
2022-09-04T17:56:04.573Z,28.80
2022-09-04T17:58:35.807Z,28.70
2022-09-04T18:01:15.006Z,28.50
2022-09-04T18:04:02.931Z,28.20
2022-09-04T18:06:37.057Z,28.30
2022-09-04T18:09:11.198Z,28.00
2022-09-04T18:11:40.797Z,27.80
2022-09-04T18:14:11.287Z,27.90
2022-09-04T18:16:53.241Z,27.80
2022-09-04T18:19:38.878Z,27.80
2022-09-04T18:22:25.528Z,27.50
2022-09-04T18:24:54.636Z,27.10
2022-09-04T18:27:27.458Z,27.10
2022-09-04T18:33:50.504Z,27.10
2022-09-04T18:37:06.241Z,26.80
2022-09-04T18:37:21.338Z,26.50
2022-09-04T18:38:36.239Z,26.30
2022-09-04T18:44:56.738Z,26.30
2022-09-04T18:50:26.163Z,26.10
2022-09-04T18:50:45.370Z,26.00
2022-09-04T18:50:52.247Z,25.90
2022-09-04T18:52:23.445Z,25.90
2022-09-04T18:54:59.268Z,25.60
2022-09-04T18:57:28.976Z,25.30
2022-09-04T19:00:09.049Z,25.30
2022-09-04T19:02:50.832Z,25.20
2022-09-04T19:05:24.238Z,25.10
2022-09-04T19:07:53.879Z,25.10
2022-09-04T19:10:23.014Z,25.10
2022-09-04T19:12:58.610Z,24.80
2022-09-04T19:15:37.675Z,24.90
2022-09-04T19:18:08.205Z,24.70
2022-09-04T19:20:44.932Z,24.50
2022-09-04T19:23:15.463Z,24.70
2022-09-04T19:25:45.079Z,24.50
2022-09-04T19:28:19.105Z,24.30
2022-09-04T19:30:48.199Z,24.20
2022-09-04T19:33:17.666Z,24.30
2022-09-04T19:35:47.796Z,24.00
2022-09-04T19:43:42.066Z,23.90
2022-09-04T19:45:57.761Z,24.00
2022-09-04T19:46:01.906Z,24.00
2022-09-04T19:46:47.454Z,23.90
2022-09-04T19:50:54.022Z,24.10
2022-09-04T19:53:29.901Z,23.80
2022-09-04T19:55:22.950Z,24.00
2022-09-04T19:57:45.463Z,24.10
2022-09-04T20:00:28.235Z,24.20
2022-09-04T20:03:04.519Z,24.10
2022-09-04T20:05:32.939Z,23.70
2022-09-04T20:08:04.014Z,24.00
2022-09-04T20:10:34.499Z,23.30
2022-09-04T20:13:03.946Z,23.60
2022-09-04T20:15:32.202Z,23.70
2022-09-04T20:18:08.509Z,23.50
2022-09-04T20:20:44.909Z,23.60
2022-09-04T20:23:29.300Z,23.40
2022-09-04T20:26:04.443Z,23.30
2022-09-04T20:28:37.569Z,23.30
2022-09-04T20:31:30.332Z,23.30
2022-09-04T20:33:59.293Z,23.30
2022-09-04T20:36:27.506Z,23.20
2022-09-04T20:38:58.098Z,23.10
2022-09-04T20:41:26.353Z,23.20
2022-09-04T20:43:57.219Z,22.80
2022-09-04T20:52:45.383Z,22.90
2022-09-04T20:52:56.425Z,23.30
2022-09-04T20:53:05.903Z,23.10
2022-09-04T20:55:06.181Z,23.00
2022-09-04T21:02:34.690Z,23.10
2022-09-04T21:03:17.138Z,23.10
2022-09-04T21:03:27.937Z,22.50
2022-09-04T21:06:06.041Z,22.80
2022-09-04T21:08:36.314Z,22.80
2022-09-04T21:11:38.788Z,22.80
2022-09-04T21:13:55.056Z,22.80
2022-09-04T21:16:25.246Z,22.80
2022-09-04T21:19:28.973Z,23.10
2022-09-04T21:22:17.257Z,23.00
2022-09-04T21:25:12.532Z,23.10
2022-09-04T21:28:17.857Z,23.00
2022-09-04T21:30:53.877Z,22.80
2022-09-04T21:33:28.404Z,22.80
2022-09-04T21:36:25.201Z,22.70
2022-09-04T21:38:54.493Z,22.70
2022-09-04T21:41:42.958Z,22.30
2022-09-04T21:44:22.687Z,22.60
2022-09-04T21:46:58.322Z,22.40
2022-09-04T21:49:31.058Z,22.50
2022-09-04T21:52:13.807Z,22.70
2022-09-04T21:56:53.443Z,22.80
2022-09-04T22:02:30.115Z,22.60
2022-09-04T22:02:44.805Z,22.80
2022-09-04T22:03:30.077Z,22.10
2022-09-04T22:06:03.997Z,22.30
2022-09-04T22:13:29.185Z,21.90
2022-09-04T22:13:46.007Z,22.30
2022-09-04T22:14:22.637Z,22.60
2022-09-04T22:17:14.496Z,22.50
2022-09-04T22:19:47.004Z,22.60
2022-09-04T22:22:32.830Z,22.40
2022-09-04T22:25:07.493Z,22.40
2022-09-04T22:28:07.859Z,22.50
2022-09-04T22:30:39.246Z,22.30
2022-09-04T22:33:12.408Z,22.40
2022-09-04T22:35:58.843Z,22.20
2022-09-04T22:38:50.449Z,22.30
2022-09-04T22:41:39.033Z,22.30
2022-09-04T22:44:12.325Z,22.20
2022-09-04T22:46:44.520Z,22.20
2022-09-04T22:49:25.830Z,22.10
2022-09-04T22:52:00.979Z,22.10
2022-09-04T22:54:44.466Z,22.10
2022-09-04T22:57:13.185Z,22.10
2022-09-04T23:00:02.118Z,22.00
2022-09-04T23:03:07.665Z,22.10
2022-09-04T23:06:27.441Z,22.30
2022-09-04T23:13:48.275Z,22.10
2022-09-04T23:13:50.173Z,22.20
2022-09-04T23:14:46.646Z,22.00
2022-09-04T23:17:30.216Z,22.20
2022-09-04T23:23:38.457Z,22.30
2022-09-04T23:26:44.995Z,22.30
2022-09-04T23:26:50.913Z,22.40
2022-09-04T23:29:22.092Z,22.30
2022-09-04T23:32:07.226Z,22.00
2022-09-04T23:34:50.734Z,21.90
2022-09-04T23:37:33.420Z,21.90
2022-09-04T23:40:09.050Z,21.70
2022-09-04T23:42:56.553Z,21.80
2022-09-04T23:45:30.314Z,21.80
2022-09-04T23:48:07.453Z,21.50
2022-09-04T23:50:39.918Z,21.70
2022-09-04T23:53:10.547Z,21.90
2022-09-04T23:55:48.729Z,21.50
2022-09-04T23:58:51.694Z,21.30
